createdAt,value
2023-04-19T00:00:35.344Z,85.96
2023-04-19T00:01:35.336Z,85.64
2023-04-19T00:02:35.427Z,85.44
2023-04-19T00:03:35.630Z,85.55
2023-04-19T00:04:35.425Z,86.16
2023-04-19T00:05:35.332Z,86.67
2023-04-19T00:06:35.332Z,86.16
2023-04-19T00:07:35.318Z,86.36
2023-04-19T00:08:35.314Z,86.16
2023-04-19T00:09:35.320Z,86.16
2023-04-19T00:10:35.378Z,86.46
2023-04-19T00:11:35.308Z,86.57
2023-04-19T00:12:35.305Z,86.05
2023-04-19T00:13:35.302Z,86.88
2023-04-19T00:14:35.292Z,86.67
2023-04-19T00:15:35.287Z,86.36
2023-04-19T00:16:35.333Z,86.57
2023-04-19T00:17:35.556Z,86.77
2023-04-19T00:18:35.279Z,87.49
2023-04-19T00:19:35.277Z,86.67
2023-04-19T00:20:35.270Z,86.88
2023-04-19T00:21:35.268Z,87.38
2023-04-19T00:22:35.268Z,87.08
2023-04-19T00:23:35.270Z,87.29
2023-04-19T00:24:35.260Z,87.18
2023-04-19T00:25:35.262Z,87.49
2023-04-19T00:26:35.388Z,87.59
2023-04-19T00:27:35.265Z,86.88
2023-04-19T00:28:35.258Z,86.98
2023-04-19T00:29:35.244Z,86.46
2023-04-19T00:30:35.280Z,86.57
2023-04-19T00:31:35.241Z,86.05
2023-04-19T00:32:35.250Z,85.85
2023-04-19T00:33:35.231Z,86.46
2023-04-19T00:34:35.227Z,86.16
2023-04-19T00:35:35.222Z,86.67
2023-04-19T00:36:35.217Z,86.83
2023-04-19T00:37:35.224Z,86.88
2023-04-19T00:38:35.213Z,87.08
2023-04-19T00:39:35.212Z,87.18
2023-04-19T00:40:35.205Z,87.79
2023-04-19T00:41:35.980Z,87.24
2023-04-19T00:42:35.222Z,87.49
2023-04-19T00:43:35.204Z,87.08
2023-04-19T00:44:35.191Z,87.29
2023-04-19T00:45:35.189Z,87.49
2023-04-19T00:46:35.226Z,87.59
2023-04-19T00:47:35.227Z,87.08
2023-04-19T00:48:35.179Z,86.36
2023-04-19T00:49:35.180Z,86.26
2023-04-19T00:50:35.176Z,86.57
2023-04-19T00:51:35.173Z,87.49
2023-04-19T00:52:35.171Z,87.38
2023-04-19T00:53:35.178Z,87.29
2023-04-19T00:54:35.165Z,87.49
2023-04-19T00:55:35.158Z,88.00
2023-04-19T00:56:35.157Z,88.20
2023-04-19T00:57:35.154Z,87.90
2023-04-19T00:58:35.171Z,88.00
2023-04-19T00:59:35.159Z,87.59
2023-04-19T01:00:35.138Z,87.29
2023-04-19T01:01:35.188Z,87.59
2023-04-19T01:02:35.277Z,87.59
2023-04-19T01:03:35.378Z,87.38
2023-04-19T01:04:35.203Z,87.18
2023-04-19T01:05:35.123Z,87.90
2023-04-19T01:06:35.116Z,88.00
2023-04-19T01:07:35.146Z,88.41
2023-04-19T01:08:35.110Z,88.71
2023-04-19T01:09:35.110Z,88.00
2023-04-19T01:10:35.110Z,88.00
2023-04-19T01:11:35.109Z,88.10
2023-04-19T01:12:35.099Z,88.10
2023-04-19T01:13:35.097Z,88.00
2023-04-19T01:14:35.113Z,88.20
2023-04-19T01:15:35.170Z,87.90
2023-04-19T01:16:35.087Z,88.00
2023-04-19T01:17:35.140Z,88.31
2023-04-19T01:18:35.078Z,88.51
2023-04-19T01:19:35.078Z,88.71
2023-04-19T01:20:35.073Z,88.41
2023-04-19T01:21:35.070Z,88.31
2023-04-19T01:22:35.067Z,88.10
2023-04-19T01:23:35.065Z,88.31
2023-04-19T01:24:35.059Z,88.41
2023-04-19T01:25:35.063Z,88.31
2023-04-19T01:26:35.053Z,89.03
2023-04-19T01:27:35.065Z,88.71
2023-04-19T01:28:35.055Z,89.03
2023-04-19T01:29:35.044Z,89.09
2023-04-19T01:30:35.059Z,89.43
2023-04-19T01:31:35.129Z,88.71
2023-04-19T01:32:35.088Z,88.71
2023-04-19T01:33:35.050Z,88.41
2023-04-19T01:34:35.023Z,88.92
2023-04-19T01:35:35.023Z,88.92
2023-04-19T01:36:35.036Z,88.82
2023-04-19T01:37:35.022Z,88.92
2023-04-19T01:38:35.066Z,89.03
2023-04-19T01:39:35.033Z,89.03
2023-04-19T01:40:35.040Z,88.92
2023-04-19T01:41:35.080Z,88.62
2023-04-19T01:42:35.018Z,88.71
2023-04-19T01:43:35.073Z,89.12
2023-04-19T01:44:35.003Z,89.84
2023-04-19T01:45:35.027Z,89.84
2023-04-19T01:46:35.070Z,90.25
2023-04-19T01:47:35.146Z,89.64
2023-04-19T01:48:35.098Z,89.64
2023-04-19T01:49:35.025Z,89.74
2023-04-19T01:50:35.054Z,90.05
2023-04-19T01:51:35.018Z,90.56
2023-04-19T01:52:35.022Z,90.45
2023-04-19T01:53:35.038Z,90.25
2023-04-19T01:54:34.972Z,90.66
2023-04-19T01:55:35.056Z,89.64
2023-04-19T01:56:34.956Z,90.77
2023-04-19T01:57:34.953Z,89.94
2023-04-19T01:58:34.953Z,89.43
2023-04-19T01:59:35.069Z,89.43
2023-04-19T02:00:34.982Z,89.84
2023-04-19T02:01:34.940Z,89.53
2023-04-19T02:02:35.114Z,88.82
2023-04-19T02:03:35.238Z,89.64
2023-04-19T02:04:34.923Z,89.12
2023-04-19T02:05:34.927Z,89.33
2023-04-19T02:06:34.926Z,89.43
2023-04-19T02:07:34.917Z,89.84
2023-04-19T02:08:34.914Z,89.53
2023-04-19T02:09:34.910Z,90.41
2023-04-19T02:10:34.908Z,90.05
2023-04-19T02:11:34.906Z,90.05
2023-04-19T02:12:34.902Z,90.66
2023-04-19T02:13:34.903Z,90.45
2023-04-19T02:14:34.898Z,89.94
2023-04-19T02:15:34.890Z,90.56
2023-04-19T02:16:36.111Z,90.45
2023-04-19T02:17:34.921Z,90.86
2023-04-19T02:18:35.250Z,91.07
2023-04-19T02:19:34.879Z,90.77
2023-04-19T02:20:34.873Z,90.77
2023-04-19T02:21:34.875Z,90.82
2023-04-19T02:22:34.865Z,90.66
2023-04-19T02:23:34.865Z,90.45
2023-04-19T02:24:34.858Z,90.56
2023-04-19T02:25:34.889Z,90.86
2023-04-19T02:26:34.862Z,90.77
2023-04-19T02:27:34.865Z,90.56
2023-04-19T02:28:34.849Z,90.77
2023-04-19T02:29:34.870Z,90.86
2023-04-19T02:30:34.877Z,90.66
2023-04-19T02:31:34.856Z,90.66
2023-04-19T02:32:34.848Z,90.77
2023-04-19T02:33:34.837Z,91.01
2023-04-19T02:34:34.848Z,90.86
2023-04-19T02:35:34.827Z,91.22
2023-04-19T02:36:34.816Z,91.52
2023-04-19T02:37:34.819Z,90.91
2023-04-19T02:38:34.813Z,91.52
2023-04-19T02:39:34.810Z,91.63
2023-04-19T02:40:34.807Z,91.83
2023-04-19T02:41:34.802Z,91.42
2023-04-19T02:42:34.806Z,91.63
2023-04-19T02:43:34.796Z,92.34
2023-04-19T02:44:34.792Z,92.14
2023-04-19T02:45:34.797Z,91.93
2023-04-19T02:46:34.842Z,92.08
2023-04-19T02:47:34.805Z,91.67
2023-04-19T02:48:34.784Z,92.08
2023-04-19T02:49:34.774Z,91.97
2023-04-19T02:50:34.910Z,91.97
2023-04-19T02:51:34.769Z,91.46
2023-04-19T02:52:34.779Z,91.87
2023-04-19T02:53:34.769Z,92.38
2023-04-19T02:54:34.766Z,92.18
2023-04-19T02:55:34.769Z,92.08
2023-04-19T02:56:34.753Z,91.97
2023-04-19T02:57:34.754Z,91.77
2023-04-19T02:58:34.747Z,92.38
2023-04-19T02:59:34.740Z,91.56
2023-04-19T03:00:34.734Z,92.38
2023-04-19T03:01:34.758Z,92.38
2023-04-19T03:02:34.791Z,92.43
2023-04-19T03:03:34.803Z,92.18
2023-04-19T03:04:34.745Z,92.43
2023-04-19T03:05:34.720Z,91.77
2023-04-19T03:06:34.739Z,92.02
2023-04-19T03:07:34.713Z,92.02
2023-04-19T03:08:34.707Z,91.50
2023-04-19T03:09:34.724Z,92.32
2023-04-19T03:10:34.699Z,92.43
2023-04-19T03:11:34.694Z,92.32
2023-04-19T03:12:34.695Z,92.12
2023-04-19T03:13:34.690Z,92.43
2023-04-19T03:14:34.683Z,92.43
2023-04-19T03:15:34.706Z,92.32
2023-04-19T03:16:34.682Z,92.63
2023-04-19T03:17:34.751Z,92.38
2023-04-19T03:18:34.699Z,92.74
2023-04-19T03:19:34.666Z,93.15
2023-04-19T03:20:34.665Z,92.74
2023-04-19T03:21:34.656Z,92.63
2023-04-19T03:22:34.670Z,92.74
2023-04-19T03:23:34.848Z,93.20
2023-04-19T03:24:37.548Z,93.20
2023-04-19T03:25:34.642Z,93.62
2023-04-19T03:26:34.634Z,93.41
2023-04-19T03:27:34.631Z,93.41
2023-04-19T03:28:34.657Z,93.51
2023-04-19T03:29:34.626Z,93.45
2023-04-19T03:30:34.625Z,93.41
2023-04-19T03:31:34.682Z,93.04
2023-04-19T03:32:34.730Z,93.04
2023-04-19T03:33:34.608Z,92.69
2023-04-19T03:34:34.608Z,92.79
2023-04-19T03:35:34.603Z,92.28
2023-04-19T03:36:34.605Z,92.74
2023-04-19T03:37:34.598Z,91.87
2023-04-19T03:38:34.616Z,92.38
2023-04-19T03:39:34.590Z,91.67
2023-04-19T03:40:34.587Z,91.91
2023-04-19T03:41:34.576Z,92.22
2023-04-19T03:42:34.589Z,91.46
2023-04-19T03:43:34.571Z,91.71
2023-04-19T03:44:34.576Z,92.22
2023-04-19T03:45:34.563Z,91.77
2023-04-19T03:46:34.585Z,91.56
2023-04-19T03:47:34.559Z,91.67
2023-04-19T03:48:34.558Z,91.56
2023-04-19T03:49:34.551Z,91.67
2023-04-19T03:50:34.553Z,91.97
2023-04-19T03:51:34.542Z,91.20
2023-04-19T03:52:34.544Z,91.40
2023-04-19T03:53:34.537Z,91.40
2023-04-19T03:54:34.551Z,91.40
2023-04-19T03:55:34.526Z,92.12
2023-04-19T03:56:34.533Z,91.46
2023-04-19T03:57:34.530Z,91.36
2023-04-19T03:58:34.519Z,91.67
2023-04-19T03:59:34.510Z,91.77
2023-04-19T04:00:34.516Z,91.56
2023-04-19T04:01:34.509Z,91.67
2023-04-19T04:02:34.644Z,91.67
2023-04-19T04:03:34.811Z,91.26
2023-04-19T04:04:34.834Z,91.67
2023-04-19T04:05:34.626Z,91.97
2023-04-19T04:06:34.487Z,91.16
2023-04-19T04:07:34.491Z,90.95
2023-04-19T04:08:34.478Z,90.84
2023-04-19T04:09:34.472Z,90.84
2023-04-19T04:10:34.508Z,90.84
2023-04-19T04:11:34.471Z,90.84
2023-04-19T04:12:34.477Z,89.83
2023-04-19T04:13:34.479Z,90.34
2023-04-19T04:14:34.464Z,89.92
2023-04-19T04:15:34.454Z,89.72
2023-04-19T04:16:34.534Z,89.42
2023-04-19T04:17:34.505Z,88.90
2023-04-19T04:18:34.443Z,89.31
2023-04-19T04:19:34.442Z,90.09
2023-04-19T04:20:34.439Z,89.51
2023-04-19T04:21:34.433Z,89.31
2023-04-19T04:22:34.431Z,88.80
2023-04-19T04:23:34.437Z,87.77
2023-04-19T04:24:34.419Z,88.08
2023-04-19T04:25:34.415Z,88.49
2023-04-19T04:26:34.559Z,88.14
2023-04-19T04:27:34.417Z,88.49
2023-04-19T04:28:34.415Z,88.59
2023-04-19T04:29:34.416Z,88.29
2023-04-19T04:30:34.421Z,88.39
2023-04-19T04:31:34.459Z,87.47
2023-04-19T04:32:34.455Z,87.98
2023-04-19T04:33:34.410Z,88.18
2023-04-19T04:34:34.416Z,88.49
2023-04-19T04:35:34.408Z,88.59
2023-04-19T04:36:34.404Z,88.59
2023-04-19T04:37:34.401Z,88.59
2023-04-19T04:38:34.393Z,88.08
2023-04-19T04:39:34.386Z,88.18
2023-04-19T04:40:34.384Z,87.88
2023-04-19T04:41:34.383Z,87.26
2023-04-19T04:42:34.417Z,87.26
2023-04-19T04:43:34.376Z,86.75
2023-04-19T04:44:34.373Z,87.37
2023-04-19T04:45:34.385Z,87.57
2023-04-19T04:46:34.369Z,87.47
2023-04-19T04:47:34.448Z,86.96
2023-04-19T04:48:34.361Z,86.65
2023-04-19T04:49:34.369Z,87.06
2023-04-19T04:50:34.352Z,85.93
2023-04-19T04:51:34.352Z,85.52
2023-04-19T04:52:34.350Z,85.22
2023-04-19T04:53:34.345Z,85.63
2023-04-19T04:54:34.344Z,86.14
2023-04-19T04:55:34.336Z,86.96
2023-04-19T04:56:34.370Z,86.55
2023-04-19T04:57:34.334Z,87.06
2023-04-19T04:58:34.346Z,87.16
2023-04-19T04:59:34.322Z,86.85
2023-04-19T05:00:34.318Z,86.34
2023-04-19T05:01:34.374Z,86.85
2023-04-19T05:02:34.466Z,86.85
2023-04-19T05:03:34.334Z,86.75
2023-04-19T05:04:34.355Z,86.96
2023-04-19T05:05:34.301Z,87.26
2023-04-19T05:06:34.300Z,87.57
2023-04-19T05:07:34.296Z,86.96
2023-04-19T05:08:34.302Z,86.44
2023-04-19T05:09:34.314Z,85.31
2023-04-19T05:10:34.289Z,85.93
2023-04-19T05:11:34.304Z,86.34
2023-04-19T05:12:34.278Z,86.65
2023-04-19T05:13:34.269Z,86.44
2023-04-19T05:14:34.325Z,86.55
2023-04-19T05:15:34.261Z,85.63
2023-04-19T05:16:34.331Z,86.24
2023-04-19T05:17:34.293Z,86.24
2023-04-19T05:18:34.256Z,86.85
2023-04-19T05:19:34.250Z,85.42
2023-04-19T05:20:34.252Z,85.83
2023-04-19T05:21:34.250Z,86.44
2023-04-19T05:22:34.240Z,85.72
2023-04-19T05:23:34.389Z,85.42
2023-04-19T05:24:34.260Z,84.84
2023-04-19T05:25:34.230Z,84.80
2023-04-19T05:26:34.234Z,85.42
2023-04-19T05:27:34.221Z,85.25
2023-04-19T05:28:34.232Z,85.25
2023-04-19T05:29:34.229Z,84.70
2023-04-19T05:30:34.235Z,84.50
2023-04-19T05:31:34.247Z,84.33
2023-04-19T05:32:34.238Z,84.33
2023-04-19T05:33:34.204Z,85.31
2023-04-19T05:34:34.196Z,85.66
2023-04-19T05:35:34.189Z,85.01
2023-04-19T05:36:34.194Z,85.52
2023-04-19T05:37:34.184Z,84.60
2023-04-19T05:38:34.186Z,84.33
2023-04-19T05:39:34.175Z,84.44
2023-04-19T05:40:34.174Z,84.84
2023-04-19T05:41:34.178Z,84.84
2023-04-19T05:42:34.170Z,84.60
2023-04-19T05:43:34.180Z,83.82
2023-04-19T05:44:34.164Z,84.12
2023-04-19T05:45:34.169Z,84.60
2023-04-19T05:46:34.232Z,84.09
2023-04-19T05:47:34.267Z,83.41
2023-04-19T05:48:34.146Z,84.23
2023-04-19T05:49:34.144Z,84.03
2023-04-19T05:50:34.142Z,84.29
2023-04-19T05:51:34.141Z,83.78
2023-04-19T05:52:34.131Z,83.82
2023-04-19T05:53:34.132Z,83.51
2023-04-19T05:54:34.125Z,83.82
2023-04-19T05:55:34.120Z,83.00
2023-04-19T05:56:34.162Z,83.68
2023-04-19T05:57:34.146Z,82.90
2023-04-19T05:58:34.113Z,81.98
2023-04-19T05:59:34.116Z,82.45
2023-04-19T06:00:34.101Z,83.31
2023-04-19T06:01:34.101Z,82.69
2023-04-19T06:02:34.292Z,82.14
2023-04-19T06:03:34.233Z,82.04
2023-04-19T06:04:34.306Z,80.54
2023-04-19T06:05:34.094Z,80.81
2023-04-19T06:06:34.080Z,82.65
2023-04-19T06:07:36.140Z,82.14
2023-04-19T06:08:34.081Z,81.43
2023-04-19T06:09:34.068Z,81.63
2023-04-19T06:10:48.908Z,81.43
2023-04-19T06:11:42.852Z,80.91
2023-04-19T06:12:34.062Z,80.60
2023-04-19T06:13:34.055Z,80.74
2023-04-19T06:14:34.050Z,81.22
2023-04-19T06:15:34.042Z,81.73
2023-04-19T06:16:34.137Z,82.86
2023-04-19T06:17:34.130Z,81.05
2023-04-19T06:18:34.055Z,81.36
2023-04-19T06:19:34.048Z,80.95
2023-04-19T06:20:34.035Z,80.60
2023-04-19T06:21:34.022Z,80.95
2023-04-19T06:22:34.018Z,81.15
2023-04-19T06:23:34.017Z,81.43
2023-04-19T06:24:35.359Z,81.73
2023-04-19T06:25:34.004Z,82.76
2023-04-19T06:26:34.007Z,82.55
2023-04-19T06:27:34.000Z,82.35
2023-04-19T06:28:34.000Z,82.24
2023-04-19T06:29:34.003Z,80.71
2023-04-19T06:30:33.986Z,78.86
2023-04-19T06:31:34.103Z,80.30
2023-04-19T06:32:34.004Z,79.48
2023-04-19T06:33:33.985Z,80.71
2023-04-19T06:34:34.098Z,79.48
2023-04-19T06:35:33.969Z,80.40
2023-04-19T06:36:33.977Z,80.51
2023-04-19T06:37:33.959Z,80.09
2023-04-19T06:38:33.959Z,80.71
2023-04-19T06:39:33.957Z,80.30
2023-04-19T06:40:33.952Z,79.27
2023-04-19T06:41:34.045Z,79.38
2023-04-19T06:42:33.946Z,81.01
2023-04-19T06:43:33.947Z,80.09
2023-04-19T06:44:33.942Z,80.26
2023-04-19T06:45:33.966Z,80.09
2023-04-19T06:46:33.928Z,81.38
2023-04-19T06:47:35.592Z,80.16
2023-04-19T06:48:33.936Z,80.67
2023-04-19T06:49:33.922Z,80.26
2023-04-19T06:50:34.075Z,80.43
2023-04-19T06:51:34.078Z,79.41
2023-04-19T06:52:33.908Z,78.79
2023-04-19T06:53:33.903Z,79.82
2023-04-19T06:54:33.912Z,79.00
2023-04-19T06:55:33.914Z,80.08
2023-04-19T06:56:33.892Z,79.37
2023-04-19T06:57:33.915Z,79.47
2023-04-19T06:58:35.103Z,79.88
2023-04-19T06:59:33.876Z,80.66
2023-04-19T07:00:33.878Z,78.41
2023-04-19T07:01:33.939Z,78.24
2023-04-19T07:02:34.200Z,77.90
2023-04-19T07:03:34.068Z,78.41
2023-04-19T07:04:34.034Z,78.52
2023-04-19T07:05:33.860Z,76.98
2023-04-19T07:06:33.875Z,78.20
2023-04-19T07:07:33.854Z,79.94
2023-04-19T07:08:48.641Z,77.90
2023-04-19T07:09:33.841Z,78.00
2023-04-19T07:10:33.837Z,76.88
2023-04-19T07:11:33.840Z,80.32
2023-04-19T07:12:33.833Z,79.13
2023-04-19T07:13:33.830Z,78.27
2023-04-19T07:14:33.829Z,77.86
2023-04-19T07:15:33.867Z,76.43
2023-04-19T07:16:33.914Z,77.35
2023-04-19T07:17:33.916Z,78.64
2023-04-19T07:18:33.812Z,77.62
2023-04-19T07:19:33.807Z,76.40
2023-04-19T07:20:33.808Z,76.90
2023-04-19T07:21:33.798Z,77.01
2023-04-19T07:22:33.897Z,76.29
2023-04-19T07:23:33.794Z,74.87
2023-04-19T07:24:33.790Z,75.68
2023-04-19T07:25:33.785Z,75.54
2023-04-19T07:26:33.783Z,76.36
2023-04-19T07:27:33.779Z,75.24
2023-04-19T07:28:33.776Z,74.59
2023-04-19T07:29:34.239Z,75.10
2023-04-19T07:30:33.769Z,75.92
2023-04-19T07:31:33.774Z,72.75
2023-04-19T07:32:33.814Z,73.77
2023-04-19T07:33:33.794Z,73.77
2023-04-19T07:34:33.763Z,74.59
2023-04-19T07:35:33.757Z,75.10
2023-04-19T07:36:33.756Z,76.29
2023-04-19T07:37:33.748Z,75.78
2023-04-19T07:38:33.830Z,75.48
2023-04-19T07:39:33.754Z,74.90
2023-04-19T07:40:33.752Z,75.41
2023-04-19T07:41:34.911Z,75.61
2023-04-19T07:42:33.737Z,76.22
2023-04-19T07:43:33.737Z,76.53
2023-04-19T07:44:33.728Z,73.98
2023-04-19T07:45:33.733Z,75.82
2023-04-19T07:46:33.767Z,75.82
2023-04-19T07:47:33.746Z,75.41
2023-04-19T07:48:33.717Z,73.98
2023-04-19T07:49:33.718Z,71.67
2023-04-19T07:50:33.710Z,73.50
2023-04-19T07:51:33.723Z,73.50
2023-04-19T07:52:33.703Z,73.81
2023-04-19T07:53:33.706Z,73.91
2023-04-19T07:54:33.722Z,73.81
2023-04-19T07:55:33.699Z,73.60
2023-04-19T07:56:33.693Z,71.22
2023-04-19T07:57:33.692Z,71.02
2023-04-19T07:58:33.689Z,72.96
2023-04-19T07:59:33.700Z,73.64
2023-04-19T08:00:33.683Z,72.62
2023-04-19T08:01:33.745Z,73.19
2023-04-19T08:02:33.845Z,73.19
2023-04-19T08:03:33.965Z,71.06
2023-04-19T08:04:33.937Z,71.94
2023-04-19T08:05:33.767Z,70.89
2023-04-19T08:06:33.686Z,70.68
2023-04-19T08:07:33.675Z,69.36
2023-04-19T08:08:34.198Z,66.10
2023-04-19T08:09:33.736Z,69.63
2023-04-19T08:10:33.683Z,68.21
2023-04-19T08:11:33.677Z,64.75
2023-04-19T08:12:39.352Z,65.36
2023-04-19T08:13:33.853Z,66.20
2023-04-19T08:14:43.865Z,64.26
2023-04-19T08:17:40.700Z,67.02
2023-04-19T08:18:33.729Z,67.60
2023-04-19T08:19:33.661Z,67.49
2023-04-19T08:20:33.658Z,66.04
2023-04-19T08:21:40.561Z,66.65
2023-04-19T08:22:33.661Z,68.55
2023-04-19T08:23:47.365Z,63.43
2023-04-19T08:24:33.667Z,63.33
2023-04-19T08:25:33.667Z,63.33
2023-04-19T08:26:33.709Z,63.43
2023-04-19T08:27:33.665Z,62.01
2023-04-19T08:28:33.692Z,63.02
2023-04-19T08:29:33.685Z,62.70
2023-04-19T08:30:33.667Z,65.44
2023-04-19T08:31:33.707Z,62.56
2023-04-19T08:32:33.716Z,60.94
2023-04-19T08:33:33.668Z,61.85
2023-04-19T08:34:34.070Z,61.78
2023-04-19T08:35:33.672Z,61.27
2023-04-19T08:36:39.401Z,60.05
2023-04-19T08:37:33.673Z,60.76
2023-04-19T08:38:33.692Z,63.40
2023-04-19T08:39:34.390Z,65.91
2023-04-19T08:40:33.682Z,60.63
2023-04-19T08:41:33.697Z,61.65
2023-04-19T08:42:36.835Z,60.74
2023-04-19T08:43:33.707Z,59.72
2023-04-19T08:44:36.743Z,62.36
2023-04-19T08:45:33.694Z,61.44
2023-04-19T08:46:33.749Z,62.05
2023-04-19T08:47:34.180Z,61.62
2023-04-19T08:48:33.706Z,61.82
2023-04-19T08:49:33.688Z,64.06
2023-04-19T08:50:42.594Z,58.98
2023-04-19T08:51:33.688Z,63.14
2023-04-19T08:52:35.419Z,60.91
2023-04-19T08:53:33.693Z,60.71
2023-04-19T08:54:33.686Z,59.39
2023-04-19T08:55:33.708Z,58.98
2023-04-19T08:56:35.994Z,58.98
2023-04-19T08:57:33.703Z,57.56
2023-04-19T08:58:51.936Z,59.99
2023-04-19T08:59:33.684Z,58.47
2023-04-19T09:00:33.693Z,58.88
2023-04-19T09:01:36.108Z,57.99
2023-04-19T09:02:33.901Z,58.83
2023-04-19T09:03:44.046Z,60.66
2023-04-19T09:04:37.423Z,60.56
2023-04-19T09:05:34.018Z,60.08
2023-04-19T09:06:34.032Z,59.47
2023-04-19T09:07:33.677Z,57.84
2023-04-19T09:08:33.677Z,61.40
2023-04-19T09:09:40.711Z,63.46
2023-04-19T09:10:33.674Z,60.82
2023-04-19T09:11:33.674Z,62.68
2023-04-19T09:12:33.674Z,63.32
2023-04-19T09:13:33.676Z,61.31
2023-04-19T09:14:33.762Z,63.99
2023-04-19T09:15:33.710Z,61.50
2023-04-19T09:16:33.669Z,61.94
2023-04-19T09:17:33.707Z,64.69
2023-04-19T09:18:37.810Z,66.63
2023-04-19T09:19:33.664Z,64.62
2023-04-19T09:20:33.658Z,64.11
2023-04-19T09:21:33.669Z,68.30
2023-04-19T09:22:33.683Z,65.23
2023-04-19T09:23:33.673Z,64.93
2023-04-19T09:24:54.044Z,62.78
2023-04-19T09:25:47.121Z,63.09
2023-04-19T09:26:33.649Z,64.52
2023-04-19T09:27:33.679Z,62.68
2023-04-19T09:28:33.638Z,63.63
2023-04-19T09:29:33.644Z,64.04
2023-04-19T09:30:40.271Z,62.68
2023-04-19T09:31:48.037Z,62.92
2023-04-19T09:32:33.680Z,65.26
2023-04-19T09:33:33.646Z,64.96
2023-04-19T09:34:33.689Z,68.02
2023-04-19T09:35:33.632Z,64.62
2023-04-19T09:36:33.619Z,67.35
2023-04-19T09:37:57.265Z,65.71
2023-04-19T09:38:33.615Z,66.53
2023-04-19T09:39:33.632Z,65.17
2023-04-19T09:40:33.609Z,66.30
2023-04-19T09:41:33.633Z,64.66
2023-04-19T09:42:54.500Z,67.29
2023-04-19T09:45:02.220Z,66.47
2023-04-19T09:45:33.616Z,66.23
2023-04-19T09:46:33.677Z,63.99
2023-04-19T09:47:33.604Z,62.26
2023-04-19T09:48:33.586Z,66.74
2023-04-19T09:49:46.058Z,65.62
2023-04-19T09:50:36.126Z,64.20
2023-04-19T09:51:33.580Z,65.52
2023-04-19T09:52:33.579Z,69.29
2023-04-19T09:53:33.576Z,65.22
2023-04-19T09:54:33.576Z,64.50
2023-04-19T09:55:42.351Z,64.50
2023-04-19T09:56:33.566Z,65.75
2023-04-19T09:57:33.566Z,64.53
2023-04-19T09:58:48.957Z,64.43
2023-04-19T09:59:33.558Z,66.16
2023-04-19T10:00:38.992Z,65.55
2023-04-19T10:01:33.571Z,61.98
2023-04-19T10:02:34.079Z,63.82
2023-04-19T10:03:33.682Z,64.02
2023-04-19T10:04:54.745Z,64.22
2023-04-19T10:05:33.790Z,61.47
2023-04-19T10:06:48.530Z,63.64
2023-04-19T10:07:33.589Z,64.36
2023-04-19T10:08:33.542Z,65.14
2023-04-19T10:09:35.677Z,64.63
2023-04-19T10:10:41.913Z,61.78
2023-04-19T10:11:33.531Z,64.63
2023-04-19T10:13:33.533Z,64.56
2023-04-19T10:14:33.978Z,64.15
2023-04-19T10:15:49.491Z,60.96
2023-04-19T10:16:33.524Z,60.96
2023-04-19T10:17:33.602Z,59.53
2023-04-19T10:18:33.544Z,59.64
2023-04-19T10:19:33.511Z,60.58
2023-04-19T10:20:33.513Z,61.91
2023-04-19T10:21:33.527Z,56.71
2023-04-19T10:22:33.498Z,56.60
2023-04-19T10:23:33.510Z,62.35
2023-04-19T10:24:33.493Z,61.12
2023-04-19T10:25:33.504Z,59.36
2023-04-19T10:26:33.508Z,59.16
2023-04-19T10:27:33.491Z,58.14
2023-04-19T10:28:33.488Z,55.69
2023-04-19T10:29:33.480Z,58.14
2023-04-19T10:30:33.473Z,55.79
2023-04-19T10:31:33.495Z,59.16
2023-04-19T10:32:33.561Z,55.79
2023-04-19T10:33:33.469Z,58.54
2023-04-19T10:34:33.486Z,57.52
2023-04-19T10:35:33.478Z,56.50
2023-04-19T10:36:33.563Z,56.71
2023-04-19T10:37:33.456Z,57.62
2023-04-19T10:38:33.453Z,55.00
2023-04-19T10:39:33.464Z,55.71
2023-04-19T10:40:33.450Z,57.96
2023-04-19T10:41:33.446Z,57.86
2023-04-19T10:42:33.440Z,62.85
2023-04-19T10:43:33.443Z,60.30
2023-04-19T10:44:33.443Z,54.18
2023-04-19T10:45:33.443Z,57.86
2023-04-19T10:46:33.462Z,56.50
2023-04-19T10:47:33.490Z,54.67
2023-04-19T10:48:33.585Z,53.83
2023-04-19T10:49:33.421Z,55.46
2023-04-19T10:50:33.578Z,58.11
2023-04-19T10:51:33.428Z,54.33
2023-04-19T10:52:33.413Z,53.70
2023-04-19T10:53:33.424Z,52.81
2023-04-19T10:54:33.403Z,54.03
2023-04-19T10:55:33.404Z,53.55
2023-04-19T10:56:33.474Z,55.18
2023-04-19T10:57:33.396Z,56.10
2023-04-19T10:58:33.391Z,54.16
2023-04-19T10:59:33.400Z,54.67
2023-04-19T11:00:33.391Z,54.05
2023-04-19T11:01:33.720Z,56.37
2023-04-19T11:02:33.555Z,54.85
2023-04-19T11:03:33.478Z,52.20
2023-04-19T11:04:33.420Z,55.35
2023-04-19T11:05:33.375Z,53.31
2023-04-19T11:06:33.400Z,54.13
2023-04-19T11:07:33.370Z,50.67
2023-04-19T11:08:37.398Z,52.12
2023-04-19T11:09:33.370Z,55.79
2023-04-19T11:10:33.363Z,54.74
2023-04-19T11:11:33.366Z,56.30
2023-04-19T11:12:33.351Z,57.42
2023-04-19T11:13:33.352Z,59.23
2023-04-19T11:14:33.791Z,53.52
2023-04-19T11:15:33.342Z,54.24
2023-04-19T11:16:45.036Z,54.85
2023-04-19T11:17:33.420Z,54.44
2023-04-19T11:18:33.363Z,54.33
2023-04-19T11:19:33.336Z,56.88
2023-04-19T11:20:33.320Z,55.56
2023-04-19T11:21:33.324Z,56.48
2023-04-19T11:22:33.362Z,60.14
2023-04-19T11:23:33.317Z,59.12
2023-04-19T11:24:33.313Z,57.26
2023-04-19T11:25:33.310Z,55.76
2023-04-19T11:26:33.310Z,51.99
2023-04-19T11:27:33.312Z,52.20
2023-04-19T11:28:33.301Z,56.88
2023-04-19T11:29:33.301Z,53.42
2023-04-19T11:30:33.297Z,51.68
2023-04-19T11:31:33.331Z,52.78
2023-04-19T11:32:33.347Z,53.92
2023-04-19T11:33:33.284Z,52.40
2023-04-19T11:34:33.281Z,51.89
2023-04-19T11:35:33.277Z,55.33
2023-04-19T11:36:33.276Z,54.44
2023-04-19T11:37:35.820Z,54.54
2023-04-19T11:38:33.289Z,54.24
2023-04-19T11:39:33.275Z,53.52
2023-04-19T11:40:33.263Z,54.13
2023-04-19T11:41:33.265Z,55.35
2023-04-19T11:42:33.269Z,55.56
2023-04-19T11:43:33.257Z,55.97
2023-04-19T11:44:33.256Z,55.46
2023-04-19T11:45:35.841Z,54.85
2023-04-19T11:46:33.328Z,57.29
2023-04-19T11:47:33.341Z,56.58
2023-04-19T11:48:33.240Z,51.38
2023-04-19T11:49:33.238Z,50.15
2023-04-19T11:50:33.274Z,51.89
2023-04-19T11:51:33.232Z,51.38
2023-04-19T11:52:33.229Z,50.26
2023-04-19T11:53:33.230Z,50.26
2023-04-19T11:54:33.251Z,54.13
2023-04-19T11:55:33.217Z,56.96
2023-04-19T11:56:33.218Z,53.92
2023-04-19T11:57:33.215Z,53.22
2023-04-19T11:58:33.238Z,53.11
2023-04-19T11:59:33.211Z,52.32
2023-04-19T12:00:33.209Z,52.42
2023-04-19T12:01:33.206Z,54.46
2023-04-19T12:02:33.280Z,55.66
2023-04-19T12:03:33.350Z,53.03
2023-04-19T12:04:33.372Z,52.09
2023-04-19T12:05:33.405Z,52.42
2023-04-19T12:06:33.206Z,51.81
2023-04-19T12:07:33.185Z,53.96
2023-04-19T12:08:33.206Z,54.24
2023-04-19T12:09:33.173Z,53.42
2023-04-19T12:10:33.353Z,56.99
2023-04-19T12:11:33.165Z,56.78
2023-04-19T12:12:33.169Z,56.07
2023-04-19T12:13:33.162Z,54.44
2023-04-19T12:14:33.511Z,53.92
2023-04-19T12:15:33.156Z,56.17
2023-04-19T12:16:33.178Z,55.35
2023-04-19T12:17:33.172Z,57.50
2023-04-19T12:18:33.149Z,56.68
2023-04-19T12:19:33.156Z,55.97
2023-04-19T12:20:33.150Z,55.66
2023-04-19T12:21:33.135Z,53.31
2023-04-19T12:22:33.155Z,53.22
2023-04-19T12:23:33.127Z,54.13
2023-04-19T12:24:33.127Z,54.44
2023-04-19T12:25:33.151Z,53.42
2023-04-19T12:26:33.143Z,54.54
2023-04-19T12:27:33.114Z,54.85
2023-04-19T12:28:33.113Z,53.72
2023-04-19T12:29:33.110Z,55.26
2023-04-19T12:30:33.105Z,55.56
2023-04-19T12:31:33.117Z,56.37
2023-04-19T12:32:33.149Z,56.68
2023-04-19T12:33:33.093Z,57.09
2023-04-19T12:34:33.121Z,57.12
2023-04-19T12:35:33.091Z,58.21
2023-04-19T12:36:33.093Z,55.46
2023-04-19T12:37:33.095Z,57.39
2023-04-19T12:38:33.083Z,55.66
2023-04-19T12:39:33.091Z,54.74
2023-04-19T12:40:33.078Z,53.92
2023-04-19T12:41:33.078Z,52.70
2023-04-19T12:42:33.226Z,55.56
2023-04-19T12:43:33.061Z,52.37
2023-04-19T12:44:33.079Z,52.98
2023-04-19T12:45:34.987Z,53.70
2023-04-19T12:46:33.135Z,54.24
2023-04-19T12:47:33.126Z,55.63
2023-04-19T12:48:33.044Z,54.21
2023-04-19T12:49:33.047Z,56.55
2023-04-19T12:50:33.050Z,54.11
2023-04-19T12:51:33.084Z,54.21
2023-04-19T12:52:33.033Z,53.80
2023-04-19T12:53:33.026Z,55.02
2023-04-19T12:54:33.028Z,54.92
2023-04-19T12:55:33.021Z,54.59
2023-04-19T12:56:33.017Z,58.08